Time;durP1;ratioP1;P1;durP2;ratioP2;P2;SDS_P1;SDS_P2;PMS_P1;PMS_P2;Temp;Humidity;BMP_temperature;BMP_pressure;BME280_temperature;BME280_humidity;BME280_pressure;Samples;Min_cycle;Max_cycle;Signal;HPM_P1;HPM_P2
2022/04/24 00:00:42;;;;;;;6.97;4.53;;;;;;;13.53;45.60;100307.91;5063956;28;20047;-52
2022/04/24 00:03:07;;;;;;;4.75;4.20;;;;;;;13.52;45.61;100303.59;5060992;28;20020;-53
2022/04/24 00:05:32;;;;;;;8.32;4.35;;;;;;;13.51;45.77;100304.47;5062734;28;20028;-51
2022/04/24 00:07:58;;;;;;;4.65;4.20;;;;;;;13.50;45.62;100292.41;5064418;28;20060;-53
2022/04/24 00:10:23;;;;;;;6.22;4.10;;;;;;;13.51;45.62;100291.56;5063298;28;20032;-54
2022/04/24 00:12:48;;;;;;;6.32;4.50;;;;;;;13.53;45.89;100295.00;5065884;28;20086;-51
2022/04/24 00:15:15;;;;;;;5.72;4.20;;;;;;;13.45;45.86;100294.09;5061612;28;20052;-52
2022/04/24 00:17:40;;;;;;;5.32;4.30;;;;;;;13.38;46.08;100301.78;5062769;28;20036;-53
2022/04/24 00:20:06;;;;;;;5.80;4.70;;;;;;;13.32;45.98;100291.41;5062802;28;20028;-52
2022/04/24 00:22:31;;;;;;;6.03;4.75;;;;;;;13.29;46.29;100300.88;5061611;28;20051;-53
2022/04/24 00:24:57;;;;;;;5.07;4.57;;;;;;;13.24;46.39;100287.06;5062218;28;20035;-52
2022/04/24 00:27:22;;;;;;;6.20;4.50;;;;;;;13.22;46.46;100279.28;5057856;28;20032;-50
2022/04/24 00:29:48;;;;;;;8.23;4.57;;;;;;;13.21;46.59;100285.31;5057176;28;20483;-52
2022/04/24 00:32:13;;;;;;;7.30;4.35;;;;;;;13.22;46.50;100281.84;5059494;28;20037;-53
2022/04/24 00:34:39;;;;;;;6.05;4.88;;;;;;;13.13;46.69;100277.47;5063462;28;20082;-52
2022/04/24 00:37:04;;;;;;;4.70;4.15;;;;;;;13.10;47.37;100274.88;5061642;28;20033;-52
2022/04/24 00:39:30;;;;;;;5.53;4.47;;;;;;;13.10;46.92;100277.47;5058623;28;20116;-53
2022/04/24 00:41:55;;;;;;;5.45;4.50;;;;;;;13.06;47.21;100277.41;5065399;28;20392;-48
2022/04/24 00:44:21;;;;;;;6.35;4.78;;;;;;;12.96;47.51;100273.88;5061954;28;20027;-52
2022/04/24 00:47:13;;;;;;;5.68;4.47;;;;;;;13.00;47.28;100270.47;5060124;28;20036;-52
2022/04/24 00:49:40;;;;;;;5.65;4.53;;;;;;;12.95;47.26;100271.28;5059513;28;20036;-55
2022/04/24 00:52:06;;;;;;;5.70;4.70;;;;;;;12.93;47.61;100273.00;5064020;28;20468;-53
2022/04/24 00:54:32;;;;;;;5.88;4.85;;;;;;;12.91;47.58;100267.81;5060766;28;20043;-54
2022/04/24 00:56:58;;;;;;;5.78;4.55;;;;;;;12.91;47.53;100272.09;5059153;28;20033;-51
2022/04/24 00:59:23;;;;;;;6.63;4.95;;;;;;;12.91;47.42;100267.81;5060291;28;20032;-53
2022/04/24 01:01:49;;;;;;;4.72;4.25;;;;;;;12.91;47.62;100275.53;5063982;28;20054;-54
2022/04/24 01:04:15;;;;;;;5.50;4.40;;;;;;;12.84;47.98;100274.63;5062577;28;20086;-53
2022/04/24 01:06:43;;;;;;;7.15;4.57;;;;;;;12.77;48.11;100262.53;5059230;28;20036;-54
2022/04/24 01:09:19;;;;;;;6.28;4.70;;;;;;;12.81;48.26;100269.44;5057612;28;20472;-54
2022/04/24 01:11:50;;;;;;;4.95;4.45;;;;;;;12.73;48.06;100275.38;5062963;28;20412;-49
2022/04/24 01:14:16;;;;;;;5.95;4.65;;;;;;;12.74;48.07;100275.41;5062195;28;20032;-55
2022/04/24 01:16:43;;;;;;;5.28;4.53;;;;;;;12.75;48.30;100277.13;5060671;28;20036;-53
2022/04/24 01:19:09;;;;;;;6.82;4.82;;;;;;;12.67;48.54;100270.16;5059944;28;20028;-52
2022/04/24 01:21:35;;;;;;;6.90;5.00;;;;;;;12.68;48.96;100275.34;5059396;28;20036;-47
2022/04/24 01:24:05;;;;;;;5.53;5.00;;;;;;;12.67;49.11;100278.75;5060338;28;20388;-53
2022/04/24 01:26:30;;;;;;;7.80;4.95;;;;;;;12.61;48.70;100278.69;5063086;28;20024;-54
2022/04/24 01:28:55;;;;;;;6.20;5.30;;;;;;;12.59;48.92;100285.56;5061698;28;20411;-49
2022/04/24 01:31:21;;;;;;;6.95;5.18;;;;;;;12.54;48.85;100276.91;5057263;28;20045;-50
2022/04/24 01:33:46;;;;;;;6.50;5.10;;;;;;;12.51;48.91;100277.75;5060970;28;20373;-53
2022/04/24 01:36:12;;;;;;;6.72;5.57;;;;;;;12.47;49.11;100275.97;5059456;28;20029;-52
2022/04/24 01:38:39;;;;;;;5.53;4.80;;;;;;;12.44;49.47;100277.66;5057701;28;20047;-53
2022/04/24 01:41:04;;;;;;;9.13;4.90;;;;;;;12.41;49.72;100277.63;5059268;28;20078;-51
2022/04/24 01:43:30;;;;;;;6.05;4.97;;;;;;;12.41;49.66;100275.03;5058402;28;20550;-52
2022/04/24 01:45:55;;;;;;;5.97;5.10;;;;;;;12.38;49.52;100272.41;5060145;28;20437;-52
2022/04/24 01:48:21;;;;;;;8.38;5.00;;;;;;;12.34;49.63;100277.56;5062019;28;20040;-51
2022/04/24 01:50:46;;;;;;;6.55;5.30;;;;;;;12.26;49.82;100281.75;5060601;28;20127;-53
2022/04/24 01:53:11;;;;;;;8.18;5.07;;;;;;;12.24;49.71;100282.56;5060281;28;20033;-51
2022/04/24 01:55:37;;;;;;;5.88;5.10;;;;;;;12.16;50.10;100279.91;5059463;28;20056;-51
2022/04/24 01:58:02;;;;;;;6.30;5.60;;;;;;;12.11;50.13;100276.41;5059292;28;20538;-51
2022/04/24 02:00:29;;;;;;;7.40;5.05;;;;;;;12.05;50.52;100273.75;5060571;28;20483;-54
2022/04/24 02:02:55;;;;;;;7.05;5.45;;;;;;;12.03;50.39;100272.88;5061922;28;20032;-52
2022/04/24 02:05:20;;;;;;;6.82;5.28;;;;;;;11.99;50.51;100271.09;5060558;28;20511;-51
2022/04/24 02:07:46;;;;;;;6.80;5.32;;;;;;;11.97;50.52;100278.81;5060990;28;20034;-54
2022/04/24 02:10:11;;;;;;;9.93;5.60;;;;;;;11.99;50.98;100273.66;5060385;28;20101;-53
2022/04/24 02:12:40;;;;;;;7.40;5.32;;;;;;;11.99;50.74;100271.97;5059940;28;20116;-50
2022/04/24 02:15:07;;;;;;;6.90;6.13;;;;;;;11.95;51.00;100277.94;5062451;28;20045;-49
2022/04/24 02:17:32;;;;;;;6.70;6.00;;;;;;;11.89;51.19;100277.88;5061868;28;20071;-53
2022/04/24 02:19:58;;;;;;;7.82;5.63;;;;;;;11.95;51.09;100277.03;5062328;28;20056;-54
2022/04/24 02:22:23;;;;;;;8.15;5.60;;;;;;;11.93;51.02;100282.19;5056103;28;20040;-49
2022/04/24 02:24:48;;;;;;;7.22;5.65;;;;;;;11.89;51.25;100276.97;5058665;28;20059;-51
2022/04/24 02:27:14;;;;;;;6.25;5.65;;;;;;;11.84;51.69;100276.94;5057707;28;20536;-51
2022/04/24 02:29:39;;;;;;;9.40;6.13;;;;;;;11.78;51.66;100275.09;5058701;28;20094;-51
2022/04/24 02:32:05;;;;;;;7.00;5.93;;;;;;;11.71;51.81;100272.41;5058859;28;20051;-56
2022/04/24 02:34:30;;;;;;;8.30;6.35;;;;;;;11.68;52.04;100272.38;5058165;28;20056;-52
2022/04/24 02:36:56;;;;;;;8.18;6.50;;;;;;;11.65;51.97;100277.47;5061387;28;20388;-54
2022/04/24 02:39:21;;;;;;;7.22;6.15;;;;;;;11.63;52.27;100269.72;5059047;28;20027;-51
2022/04/24 02:41:46;;;;;;;8.10;6.35;;;;;;;11.63;52.28;100274.88;5059220;28;20044;-50
2022/04/24 02:44:12;;;;;;;7.55;6.40;;;;;;;11.60;52.31;100274.84;5060794;28;20603;-51
2022/04/24 02:46:37;;;;;;;6.93;6.22;;;;;;;11.57;52.42;100273.91;5064044;28;20041;-52
2022/04/24 02:49:02;;;;;;;6.82;6.07;;;;;;;11.55;52.43;100279.06;5057189;28;20108;-52
2022/04/24 02:51:28;;;;;;;7.80;6.90;;;;;;;11.53;52.69;100279.03;5058503;28;20109;-48
2022/04/24 02:53:53;;;;;;;7.13;6.43;;;;;;;11.46;52.62;100281.47;5060619;28;20068;-51
2022/04/24 02:56:18;;;;;;;9.60;6.80;;;;;;;11.42;53.19;100277.16;5058787;28;20047;-53
2022/04/24 02:58:44;;;;;;;10.15;6.43;;;;;;;11.45;52.74;100290.03;5058962;28;20442;-51
2022/04/24 03:01:11;;;;;;;10.30;6.90;;;;;;;11.39;53.01;100288.25;5057486;28;20499;-52
2022/04/24 03:03:37;;;;;;;7.82;6.85;;;;;;;11.41;53.26;100290.88;5056780;28;20020;-49
2022/04/24 03:06:03;;;;;;;7.53;6.68;;;;;;;11.33;53.20;100295.00;5059570;28;20024;-53
2022/04/24 03:08:29;;;;;;;7.60;6.80;;;;;;;11.28;53.52;100289.78;5059289;28;20123;-52
2022/04/24 03:10:54;;;;;;;9.50;7.07;;;;;;;11.22;53.85;100293.16;5058121;28;20032;-52
2022/04/24 03:13:20;;;;;;;8.90;6.70;;;;;;;11.23;53.83;100288.88;5059339;28;20468;-52
2022/04/24 03:15:46;;;;;;;8.93;6.90;;;;;;;11.21;53.91;100287.94;5063793;28;20033;-51
2022/04/24 03:18:11;;;;;;;11.98;6.88;;;;;;;11.14;54.27;100284.41;5059741;28;20090;-49
2022/04/24 03:20:37;;;;;;;7.90;6.72;;;;;;;11.11;54.64;100288.66;5057855;28;20032;-53
2022/04/24 03:23:02;;;;;;;9.85;6.93;;;;;;;11.13;54.79;100292.97;5061666;28;20060;-54
2022/04/24 03:25:27;;;;;;;8.10;7.30;;;;;;;11.12;54.66;100287.81;5058575;28;20104;-53
2022/04/24 03:27:53;;;;;;;8.57;7.10;;;;;;;11.09;54.71;100291.19;5061743;28;20339;-52
2022/04/24 03:30:19;;;;;;;10.07;6.88;;;;;;;11.08;55.08;100288.59;5061111;28;20033;-53
2022/04/24 03:32:44;;;;;;;8.43;6.70;;;;;;;11.09;54.96;100282.59;5064086;28;20496;-54
2022/04/24 03:35:10;;;;;;;11.88;6.97;;;;;;;11.09;55.46;100287.75;5061839;28;20035;-53
2022/04/24 03:37:39;;;;;;;9.75;7.18;;;;;;;11.06;55.74;100280.00;5063199;28;20124;-53
2022/04/24 03:40:06;;;;;;;8.18;7.30;;;;;;;11.03;55.70;100283.38;5060180;28;20082;-53
2022/04/24 03:42:32;;;;;;;10.90;7.43;;;;;;;10.99;56.04;100282.47;5061215;28;20032;-53
2022/04/24 03:44:58;;;;;;;8.73;7.50;;;;;;;11.05;55.93;100291.13;5064616;28;20116;-55
2022/04/24 03:47:23;;;;;;;8.90;7.25;;;;;;;10.98;56.38;100287.56;5061223;28;20399;-52
2022/04/24 03:49:49;;;;;;;10.32;7.35;;;;;;;10.95;56.47;100287.53;5064054;28;20583;-53
2022/04/24 03:52:15;;;;;;;10.88;7.53;;;;;;;10.89;56.97;100282.28;5056975;28;20540;-50
2022/04/24 03:54:40;;;;;;;13.13;7.93;;;;;;;10.83;57.04;100287.31;5063716;28;20055;-53
2022/04/24 03:57:06;;;;;;;8.80;7.43;;;;;;;10.81;57.16;100291.56;5058624;28;20443;-53
2022/04/24 03:59:31;;;;;;;8.10;7.15;;;;;;;10.74;57.55;100288.88;5061311;28;20519;-51
2022/04/24 04:01:57;;;;;;;8.95;7.32;;;;;;;10.71;57.95;100293.97;5059660;28;20040;-55
2022/04/24 04:04:22;;;;;;;11.75;7.30;;;;;;;10.67;58.09;100294.72;5061070;28;20484;-49
2022/04/24 04:06:48;;;;;;;12.82;7.43;;;;;;;10.63;58.21;100285.25;5058035;28;20043;-53
2022/04/24 04:09:14;;;;;;;11.82;7.65;;;;;;;10.63;58.25;100290.38;5060521;28;20033;-52
2022/04/24 04:11:39;;;;;;;9.13;7.10;;;;;;;10.60;58.47;100289.44;5060538;28;20043;-52
2022/04/24 04:14:05;;;;;;;9.40;7.60;;;;;;;10.55;58.90;100285.94;5060235;28;20393;-50
2022/04/24 04:16:30;;;;;;;9.15;7.60;;;;;;;10.50;58.86;100291.00;5059663;28;20032;-52
2022/04/24 04:18:55;;;;;;;11.13;7.78;;;;;;;10.50;59.22;100288.44;5060273;28;20040;-54
2022/04/24 04:21:21;;;;;;;10.27;7.22;;;;;;;10.46;59.26;100294.34;5064028;28;20453;-55
2022/04/24 04:23:46;;;;;;;10.32;7.05;;;;;;;10.43;59.57;100291.69;5060161;28;20093;-50
2022/04/24 04:26:12;;;;;;;9.75;7.57;;;;;;;10.44;59.55;100286.59;5063359;28;20392;-50
2022/04/24 04:28:37;;;;;;;9.05;7.05;;;;;;;10.46;59.54;100295.22;5058995;28;20562;-49
2022/04/24 04:31:03;;;;;;;8.90;7.05;;;;;;;10.44;59.46;100294.31;5058131;28;20088;-52
2022/04/24 04:33:28;;;;;;;10.75;6.82;;;;;;;10.44;59.51;100298.59;5060402;28;20055;-52
2022/04/24 04:35:53;;;;;;;11.15;7.25;;;;;;;10.46;59.52;100310.63;5061781;28;20822;-52
2022/04/24 04:38:19;;;;;;;13.40;7.32;;;;;;;10.43;59.70;100301.97;5059256;28;20028;-49
2022/04/24 04:40:44;;;;;;;11.63;6.93;;;;;;;10.42;59.73;100300.25;5060587;28;20441;-53
2022/04/24 04:43:10;;;;;;;10.68;7.30;;;;;;;10.39;59.68;100307.91;5058750;28;20029;-51
2022/04/24 04:45:35;;;;;;;8.40;7.28;;;;;;;10.33;60.16;100310.38;5064624;28;20038;-52
2022/04/24 04:48:00;;;;;;;8.73;6.82;;;;;;;10.32;60.10;100311.22;5062808;28;20032;-49
2022/04/24 04:50:26;;;;;;;10.15;7.07;;;;;;;10.30;60.28;100320.56;5057682;28;20025;-49
2022/04/24 04:52:51;;;;;;;9.00;7.30;;;;;;;10.31;60.59;100317.16;5061304;28;20025;-53
2022/04/24 04:55:17;;;;;;;11.18;6.85;;;;;;;10.25;60.58;100317.88;5061807;28;20436;-52
2022/04/24 04:57:43;;;;;;;9.75;6.65;;;;;;;10.28;60.55;100322.25;5063419;28;20037;-52
2022/04/24 05:00:09;;;;;;;8.93;7.57;;;;;;;10.27;60.57;100323.09;5061147;28;20144;-50
2022/04/24 05:02:38;;;;;;;9.05;7.13;;;;;;;10.28;60.54;100329.94;5061013;28;20511;-52
2022/04/24 05:05:06;;;;;;;9.10;7.05;;;;;;;10.30;60.48;100328.28;5064001;28;20384;-52
2022/04/24 05:07:31;;;;;;;9.65;6.82;;;;;;;10.31;60.37;100336.00;5061721;28;20078;-47
2022/04/24 05:09:57;;;;;;;10.10;7.00;;;;;;;10.30;60.40;100330.84;5061626;28;20082;-52
2022/04/24 05:12:27;;;;;;;7.07;5.88;;;;;;;10.36;60.10;100338.69;5059977;28;20067;-51
2022/04/24 05:14:53;;;;;;;9.63;6.43;;;;;;;10.37;60.08;100342.97;5066661;28;20082;-53
2022/04/24 05:17:18;;;;;;;8.68;6.57;;;;;;;10.37;59.90;100337.84;5062069;28;20032;-51
2022/04/24 05:19:43;;;;;;;8.63;6.97;;;;;;;10.44;59.71;100344.88;5065013;28;20032;-52
2022/04/24 05:22:09;;;;;;;7.47;6.30;;;;;;;10.41;59.77;100347.34;5064400;28;20373;-51
2022/04/24 05:24:34;;;;;;;9.07;5.82;;;;;;;10.49;59.54;100345.78;5061591;28;20025;-51
2022/04/24 05:27:01;;;;;;;7.75;5.97;;;;;;;10.48;59.40;100355.22;5059152;28;20082;-49
2022/04/24 05:29:27;;;;;;;10.38;6.68;;;;;;;10.39;59.65;100355.03;5061875;28;20036;-53
2022/04/24 05:31:53;;;;;;;12.02;6.45;;;;;;;10.39;60.07;100359.31;5055967;28;20092;-52
2022/04/24 05:34:18;;;;;;;9.27;6.35;;;;;;;10.41;59.80;100360.22;5063203;28;20126;-52
2022/04/24 05:36:43;;;;;;;7.82;6.20;;;;;;;10.40;59.95;100368.75;5060719;28;20029;-52
2022/04/24 05:39:09;;;;;;;7.05;5.85;;;;;;;10.48;59.58;100364.63;5057081;28;20050;-49
2022/04/24 05:41:34;;;;;;;8.02;6.40;;;;;;;10.55;59.42;100363.03;5060645;28;20032;-49
2022/04/24 05:44:00;;;;;;;6.63;5.65;;;;;;;10.56;58.97;100368.25;5060587;28;20104;-49
2022/04/24 05:46:25;;;;;;;9.15;6.10;;;;;;;10.58;58.91;100363.13;5075835;28;20123;-47
2022/04/24 05:48:50;;;;;;;8.63;6.18;;;;;;;10.60;58.97;100366.59;5061681;28;20438;-53
2022/04/24 05:51:16;;;;;;;8.32;6.20;;;;;;;10.63;58.60;100362.38;5059051;28;20047;-50
2022/04/24 05:53:41;;;;;;;9.30;5.88;;;;;;;10.76;58.57;100378.91;5061007;28;20060;-52
2022/04/24 05:56:07;;;;;;;8.25;5.78;;;;;;;10.80;57.89;100370.44;5060765;28;20033;-52
2022/04/24 05:58:32;;;;;;;9.68;6.05;;;;;;;10.83;57.98;100369.63;5061174;28;20040;-52
2022/04/24 06:00:57;;;;;;;8.00;5.80;;;;;;;10.85;57.85;100371.34;5062510;28;20036;-50
2022/04/24 06:03:23;;;;;;;10.18;6.15;;;;;;;10.91;57.54;100373.19;5057253;28;20071;-52
2022/04/24 06:05:48;;;;;;;9.35;5.50;;;;;;;10.92;57.29;100372.34;5061952;28;20550;-52
2022/04/24 06:08:14;;;;;;;7.25;6.15;;;;;;;10.99;57.61;100377.66;5059875;28;20037;-52
2022/04/24 06:10:39;;;;;;;8.68;5.93;;;;;;;11.10;56.84;100377.84;5057162;28;20048;-49
2022/04/24 06:13:05;;;;;;;7.15;5.55;;;;;;;11.14;56.62;100377.06;5061264;28;20028;-52
2022/04/24 06:15:30;;;;;;;7.10;5.80;;;;;;;11.16;56.29;100377.97;5053983;28;20483;-53
2022/04/24 06:17:57;;;;;;;8.23;6.07;;;;;;;11.25;56.44;100384.97;5061149;28;20082;-50
2022/04/24 06:20:24;;;;;;;7.25;5.60;;;;;;;11.37;55.80;100390.31;5061819;28;20128;-54
2022/04/24 06:22:57;;;;;;;13.35;6.55;;;;;;;11.47;55.61;100381.94;5059029;28;20059;-49
2022/04/24 06:25:25;;;;;;;6.93;5.78;;;;;;;11.55;55.46;100390.63;5056454;28;20473;-52
2022/04/24 06:27:52;;;;;;;7.88;5.65;;;;;;;11.65;55.22;100388.19;5063492;28;20028;-52
2022/04/24 06:30:20;;;;;;;12.02;5.55;;;;;;;11.72;55.01;100380.63;5057886;28;20036;-51
2022/04/24 06:32:45;;;;;;;9.05;5.70;;;;;;;11.86;54.36;100377.41;5056838;28;20110;-52
2022/04/24 06:35:15;;;;;;;9.55;5.90;;;;;;;11.96;54.09;100377.56;5059388;28;20029;-49
2022/04/24 06:37:48;;;;;;;6.50;5.47;;;;;;;12.05;53.64;100381.97;5056716;28;20440;-53
2022/04/24 06:40:16;;;;;;;7.10;5.28;;;;;;;12.13;53.39;100384.66;5055614;28;20487;-50
2022/04/24 06:43:04;;;;;;;8.02;5.82;;;;;;;12.22;53.40;100388.25;5062038;28;20025;-51
2022/04/24 06:45:41;;;;;;;11.33;6.27;;;;;;;12.30;52.97;100388.34;5058408;28;20508;-51
2022/04/24 06:48:11;;;;;;;8.13;6.07;;;;;;;12.46;52.58;100394.56;5058621;28;20032;-53
2022/04/24 06:50:39;;;;;;;7.00;5.75;;;;;;;12.58;52.38;100390.44;5060677;28;20503;-53
2022/04/24 06:53:06;;;;;;;8.35;5.82;;;;;;;12.70;51.58;100392.31;5054026;28;20384;-53
2022/04/24 06:55:37;;;;;;;10.63;5.70;;;;;;;12.83;51.31;100393.31;5058376;28;20031;-53
2022/04/24 06:58:04;;;;;;;10.82;5.93;;;;;;;12.89;50.81;100389.06;5060869;28;20500;-54
2022/04/24 07:00:33;;;;;;;7.00;5.20;;;;;;;13.00;50.56;100393.50;5060620;28;20025;-54
2022/04/24 07:02:58;;;;;;;7.47;5.70;;;;;;;13.09;50.38;100396.16;5063363;28;20178;-52
2022/04/24 07:05:27;;;;;;;6.93;5.22;;;;;;;13.22;50.01;100400.63;5057906;28;20127;-53
2022/04/24 07:07:53;;;;;;;7.70;5.47;;;;;;;13.36;49.53;100398.19;5062299;28;20483;-54
2022/04/24 07:10:19;;;;;;;7.93;5.93;;;;;;;13.41;49.12;100391.38;5059429;28;20400;-53
2022/04/24 07:12:45;;;;;;;6.50;5.50;;;;;;;13.52;48.76;100394.88;5061945;28;20035;-54
2022/04/24 07:15:10;;;;;;;9.05;5.45;;;;;;;13.57;48.70;100398.38;5066207;28;20028;-54
2022/04/24 07:17:35;;;;;;;9.95;5.63;;;;;;;13.60;48.99;100400.13;5067124;28;20408;-52
2022/04/24 07:20:01;;;;;;;6.20;5.40;;;;;;;13.75;49.13;100397.66;5067766;28;20028;-53
2022/04/24 07:22:26;;;;;;;10.57;5.97;;;;;;;13.82;48.36;100399.44;5063972;28;20033;-54
2022/04/24 07:24:51;;;;;;;7.20;5.10;;;;;;;13.98;48.38;100408.16;5064541;28;20025;-53
2022/04/24 07:27:17;;;;;;;6.45;5.55;;;;;;;13.99;48.04;100411.63;5063047;28;20107;-50
2022/04/24 07:29:42;;;;;;;6.35;5.30;;;;;;;14.06;47.79;100398.72;5060773;28;20028;-54
2022/04/24 07:32:08;;;;;;;6.63;5.22;;;;;;;14.07;47.64;100408.22;5063173;28;20040;-50
2022/04/24 07:34:33;;;;;;;7.05;5.85;;;;;;;14.05;47.12;100404.75;5063380;28;20544;-54
2022/04/24 07:36:59;;;;;;;8.15;5.35;;;;;;;14.11;47.39;100406.53;5058865;28;20020;-54
2022/04/24 07:39:24;;;;;;;9.65;5.43;;;;;;;14.26;47.51;100405.75;5062869;28;20036;-48
2022/04/24 07:41:50;;;;;;;7.03;5.90;;;;;;;14.34;46.40;100409.25;5061361;28;20999;-52
2022/04/24 07:44:15;;;;;;;7.32;5.75;;;;;;;14.44;46.19;100411.91;5062157;28;20056;-54
2022/04/24 07:46:41;;;;;;;8.15;5.63;;;;;;;14.57;47.16;100406.81;5061351;28;20082;-53
2022/04/24 07:49:06;;;;;;;11.15;6.10;;;;;;;14.61;46.14;100411.13;5062367;28;20102;-55
2022/04/24 07:51:31;;;;;;;9.50;6.00;;;;;;;14.58;45.32;100408.53;5060949;28;20127;-55
2022/04/24 07:53:57;;;;;;;10.75;6.28;;;;;;;14.61;45.38;100401.63;5064460;28;20033;-51
2022/04/24 07:56:22;;;;;;;7.75;5.93;;;;;;;14.70;45.63;100403.41;5060828;28;20391;-53
2022/04/24 07:58:47;;;;;;;7.78;6.00;;;;;;;14.82;45.14;100403.47;5061400;28;20123;-54
2022/04/24 08:01:16;;;;;;;9.20;6.22;;;;;;;14.93;45.39;100394.00;5063638;28;20075;-54
2022/04/24 08:03:42;;;;;;;7.85;5.93;;;;;;;15.06;45.11;100410.44;5069147;28;20036;-55
2022/04/24 08:06:08;;;;;;;7.88;6.28;;;;;;;15.16;44.49;100403.53;5064908;28;20028;-53
2022/04/24 08:08:33;;;;;;;10.20;6.10;;;;;;;15.13;44.04;100408.72;5061242;28;20514;-54
2022/04/24 08:10:58;;;;;;;7.43;6.07;;;;;;;15.15;44.27;100412.19;5060773;28;20478;-55
2022/04/24 08:13:25;;;;;;;7.80;6.22;;;;;;;15.10;43.71;100425.09;5068409;28;20039;-52
2022/04/24 08:15:51;;;;;;;7.80;6.28;;;;;;;15.19;43.95;100419.97;5064343;28;20040;-54
2022/04/24 08:18:17;;;;;;;7.50;6.05;;;;;;;15.18;43.76;100425.16;5068501;28;20492;-54
2022/04/24 08:20:44;;;;;;;9.20;6.15;;;;;;;15.21;43.64;100418.22;5064014;28;20023;-55
2022/04/24 08:23:10;;;;;;;7.85;6.25;;;;;;;15.33;43.58;100422.56;5054143;28;20055;-54
2022/04/24 08:25:37;;;;;;;10.68;6.90;;;;;;;15.16;43.66;100421.66;5064135;28;20083;-54
2022/04/24 08:28:08;;;;;;;10.55;6.82;;;;;;;15.27;44.03;100425.16;5063773;28;20028;-53
2022/04/24 08:30:35;;;;;;;12.00;6.70;;;;;;;15.37;43.75;100418.28;5064572;28;20028;-55
2022/04/24 08:33:01;;;;;;;8.20;6.90;;;;;;;15.28;43.63;100416.50;5069301;28;20039;-54
2022/04/24 08:35:27;;;;;;;7.00;6.20;;;;;;;15.38;43.85;100422.59;5066002;28;20480;-54
2022/04/24 08:37:53;;;;;;;8.15;6.18;;;;;;;15.55;44.36;100424.34;5069540;28;20030;-53
2022/04/24 08:40:20;;;;;;;11.68;7.03;;;;;;;15.54;43.30;100424.34;5065619;28;20453;-54
2022/04/24 08:42:46;;;;;;;8.27;6.80;;;;;;;15.60;42.79;100421.75;5068105;28;20059;-52
2022/04/24 08:45:15;;;;;;;8.27;6.80;;;;;;;15.71;43.12;100430.44;5065291;28;20025;-53
2022/04/24 08:47:44;;;;;;;9.52;6.38;;;;;;;15.79;42.99;100428.69;5063473;28;20032;-53
2022/04/24 08:50:11;;;;;;;;;;;;;;;15.95;44.01;100426.06;5066269;28;20033;-54
2022/04/24 08:52:37;;;;;;;10.40;7.60;;;;;;;15.95;41.92;100429.53;5060466;28;19916;-54
2022/04/24 08:55:03;;;;;;;9.60;7.38;;;;;;;15.94;42.36;100422.63;5063487;28;20025;-54
2022/04/24 08:57:32;;;;;;;8.80;7.40;;;;;;;15.98;42.27;100423.50;5061987;28;20032;-51
2022/04/24 08:59:59;;;;;;;10.43;7.38;;;;;;;16.08;42.29;100426.09;5063732;28;20853;-54
2022/04/24 09:02:24;;;;;;;8.75;7.07;;;;;;;16.24;42.30;100426.91;5066259;28;20501;-53
2022/04/24 09:04:52;;;;;;;8.73;6.97;;;;;;;16.25;41.74;100432.94;5062577;28;20107;-54
2022/04/24 09:07:19;;;;;;;9.50;7.43;;;;;;;16.30;41.90;100432.06;5062724;28;20116;-53
2022/04/24 09:09:49;;;;;;;10.25;7.35;;;;;;;16.30;41.43;100433.81;5065223;28;20109;-54
2022/04/24 09:12:24;;;;;;;9.00;7.53;;;;;;;16.38;41.70;100431.19;5066892;28;20465;-54
2022/04/24 09:14:52;;;;;;;8.88;7.15;;;;;;;16.39;41.35;100433.81;5067329;28;20675;-55
2022/04/24 09:17:26;;;;;;;7.85;6.80;;;;;;;16.44;41.45;100429.47;5066021;28;20017;-54
2022/04/24 09:19:53;;;;;;;8.15;7.10;;;;;;;16.50;41.56;100441.53;5066530;28;20055;-54
2022/04/24 09:22:19;;;;;;;8.95;7.30;;;;;;;16.72;41.31;100434.59;5067809;28;20043;-54
2022/04/24 09:24:52;;;;;;;10.68;7.10;;;;;;;16.80;40.87;100432.81;5055932;28;20044;-55
2022/04/24 09:27:27;;;;;;;9.27;7.25;;;;;;;16.91;40.25;100440.56;5058787;28;20029;-51
2022/04/24 09:30:04;;;;;;;11.32;7.40;;;;;;;17.01;40.80;100434.47;5060486;28;20021;-54
2022/04/24 09:32:36;;;;;;;9.95;7.55;;;;;;;17.02;41.09;100437.03;5058650;28;20037;-52
2022/04/24 09:35:02;;;;;;;9.77;6.95;;;;;;;17.11;40.63;100441.34;5062022;28;21847;-53
2022/04/24 09:37:37;;;;;;;8.25;7.15;;;;;;;17.09;40.63;100436.13;5059018;28;20028;-52
2022/04/24 09:40:03;;;;;;;11.80;7.43;;;;;;;17.09;39.54;100436.13;5061292;28;21040;-50
2022/04/24 09:42:29;;;;;;;8.65;7.18;;;;;;;17.12;39.97;100430.94;5062326;28;20025;-52
2022/04/24 09:44:54;;;;;;;8.98;6.95;;;;;;;17.10;39.01;100435.25;5061924;28;20032;-52
2022/04/24 09:47:24;;;;;;;9.80;7.43;;;;;;;17.17;39.88;100428.31;5062357;28;20572;-54
2022/04/24 09:49:50;;;;;;;9.68;7.20;;;;;;;17.21;39.91;100436.94;5058897;28;20490;-48
2022/04/24 09:52:24;;;;;;;9.98;7.28;;;;;;;17.21;39.47;100430.00;5059218;28;20028;-54
2022/04/24 09:54:51;;;;;;;8.85;7.00;;;;;;;17.26;39.52;100436.03;5062071;28;20040;-53
2022/04/24 09:57:19;;;;;;;11.65;7.30;;;;;;;17.30;40.36;100437.75;5059693;28;20052;-52
2022/04/24 09:59:48;;;;;;;10.48;7.18;;;;;;;17.33;39.36;100435.13;5061858;28;20085;-52
2022/04/24 10:02:18;;;;;;;9.73;7.13;;;;;;;17.37;39.31;100438.59;5064259;28;20672;-53
2022/04/24 10:04:45;;;;;;;11.73;7.40;;;;;;;17.45;38.77;100439.38;5057199;28;20457;-52
2022/04/24 10:07:16;;;;;;;7.35;6.60;;;;;;;17.48;39.25;100434.19;5058634;28;20020;-53
2022/04/24 10:09:46;;;;;;;8.50;7.07;;;;;;;17.58;39.76;100442.75;5062947;28;20036;-52
2022/04/24 10:12:23;;;;;;;8.18;6.78;;;;;;;17.69;38.99;100430.53;5057653;28;20029;-54
2022/04/24 10:15:06;;;;;;;8.35;6.53;;;;;;;17.82;39.05;100440.00;5062779;28;20090;-53
2022/04/24 10:17:47;;;;;;;8.40;6.75;;;;;;;17.83;37.58;100444.31;5059265;28;20032;-50
2022/04/24 10:20:40;;;;;;;11.73;7.03;;;;;;;17.87;37.64;100439.97;5061158;28;20036;-49
2022/04/24 10:23:06;;;;;;;8.40;6.97;;;;;;;17.97;37.54;100439.03;5059438;28;20032;-49
2022/04/24 10:25:43;;;;;;;8.48;6.80;;;;;;;18.03;37.96;100443.31;5062119;28;20400;-51
2022/04/24 10:28:16;;;;;;;8.10;6.93;;;;;;;18.16;38.63;100440.56;5057113;28;20024;-53
2022/04/24 10:30:44;;;;;;;7.60;6.65;;;;;;;18.13;36.40;100435.38;5059247;28;20104;-53
2022/04/24 10:33:23;;;;;;;7.97;6.90;;;;;;;18.16;36.08;100442.31;5057701;28;20443;-53
2022/04/24 10:35:54;;;;;;;7.90;6.80;;;;;;;18.13;36.79;100445.78;5062597;28;20115;-48
2022/04/24 10:38:24;;;;;;;8.25;6.80;;;;;;;18.11;37.70;100434.53;5061750;28;20658;-51
2022/04/24 10:40:59;;;;;;;9.85;7.18;;;;;;;18.27;37.97;100429.19;5064203;28;20036;-47
2022/04/24 10:43:25;;;;;;;8.63;6.80;;;;;;;18.36;36.78;100436.91;5063672;28;20560;-51
2022/04/24 10:45:52;;;;;;;8.38;6.38;;;;;;;18.42;35.96;100442.03;5062269;28;20119;-53
2022/04/24 10:48:19;;;;;;;7.82;6.55;;;;;;;18.45;35.00;100448.09;5062138;28;20059;-53
2022/04/24 10:50:55;;;;;;;8.52;6.13;;;;;;;18.66;36.91;100440.91;5055765;28;20052;-50
2022/04/24 10:53:20;;;;;;;9.63;6.90;;;;;;;18.67;35.30;100438.31;5058570;28;20028;-50
2022/04/24 10:55:46;;;;;;;7.18;5.82;;;;;;;18.79;34.72;100441.66;5058351;28;20032;-54
2022/04/24 10:58:12;;;;;;;7.18;6.35;;;;;;;18.76;34.57;100432.13;5058712;28;20646;-51
2022/04/24 11:00:38;;;;;;;8.88;6.43;;;;;;;18.68;34.28;100449.56;5060266;28;20033;-50
2022/04/24 11:03:15;;;;;;;7.10;6.07;;;;;;;18.70;34.52;100442.63;5060586;28;20032;-54
2022/04/24 11:05:46;;;;;;;8.25;6.38;;;;;;;18.92;34.88;100440.59;5062007;28;20028;-50
2022/04/24 11:08:18;;;;;;;8.45;5.82;;;;;;;19.08;33.89;100418.69;5056539;28;20075;-52
2022/04/24 11:10:45;;;;;;;9.73;6.35;;;;;;;19.23;34.02;100425.41;5058406;28;20047;-54
2022/04/24 11:13:19;;;;;;;7.15;6.10;;;;;;;19.46;33.67;100430.28;5060242;28;20036;-54
2022/04/24 11:15:47;;;;;;;8.45;5.93;;;;;;;19.44;33.22;100438.16;5059646;28;20025;-54
2022/04/24 11:18:23;;;;;;;6.00;5.40;;;;;;;19.58;33.92;100445.78;5058319;28;20116;-53
2022/04/24 11:21:01;;;;;;;9.07;5.60;;;;;;;19.83;33.71;100430.59;5058891;28;20036;-54
2022/04/24 11:23:33;;;;;;;7.15;6.18;;;;;;;19.90;32.16;100441.78;5058714;28;20035;-49